Time,TemperatureF,DewpointF,PressureIn,WindDirection,WindDirectionDegrees,WindSpeedMPH,WindSpeedGustMPH,Humidity,HourlyPrecipIn,Conditions,Clouds,dailyrainin,SoftwareType,DateUTC
2013-05-03 00:01:00,51.6,42.9,29.92,SE,135,0.0,0.0,72,0.00,,,0.00,WUHU216HW,2013-05-03 04:01:00,
2013-05-03 00:02:00,51.4,42.7,29.92,SE,135,0.0,0.0,72,0.00,,,0.00,WUHU216HW,2013-05-03 04:02:00,
2013-05-03 00:07:00,51.4,42.7,29.92,SE,135,0.0,0.0,72,0.00,,,0.00,WUHU216HW,2013-05-03 04:07:00,
2013-05-03 00:12:00,51.2,42.5,29.92,SE,135,0.0,0.0,72,0.00,,,0.00,WUHU216HW,2013-05-03 04:12:00,
2013-05-03 00:17:00,51.0,42.4,29.92,SE,135,0.0,0.0,72,0.00,,,0.00,WUHU216HW,2013-05-03 04:17:00,
2013-05-03 00:22:00,50.9,42.2,29.92,SE,135,0.0,0.0,72,0.00,,,0.00,WUHU216HW,2013-05-03 04:22:00,
2013-05-03 00:27:00,50.7,42.0,29.92,SE,135,0.0,0.0,72,0.00,,,0.00,WUHU216HW,2013-05-03 04:27:00,
2013-05-03 00:33:00,50.5,41.8,29.92,SE,135,0.0,0.0,72,0.00,,,0.00,WUHU216HW,2013-05-03 04:33:00,
2013-05-03 00:38:00,50.5,42.0,29.92,SE,135,0.0,0.0,73,0.00,,,0.00,WUHU216HW,2013-05-03 04:38:00,
2013-05-03 00:43:00,50.1,42.1,29.91,SE,135,0.0,0.0,74,0.00,,,0.00,WUHU216HW,2013-05-03 04:43:00,
2013-05-03 00:48:00,50.1,42.1,29.92,SE,135,0.0,0.0,74,0.00,,,0.00,WUHU216HW,2013-05-03 04:48:00,
2013-05-03 00:53:00,49.8,42.1,29.91,SE,135,0.0,0.0,75,0.00,,,0.00,WUHU216HW,2013-05-03 04:53:00,
2013-05-03 00:58:00,49.8,42.1,29.91,SE,135,0.0,0.0,75,0.00,,,0.00,WUHU216HW,2013-05-03 04:58:00,
2013-05-03 01:03:00,49.8,42.1,29.91,SE,135,0.0,0.0,75,0.00,,,0.00,WUHU216HW,2013-05-03 05:03:00,
2013-05-03 01:08:00,49.8,41.9,29.92,SE,135,0.0,0.0,75,0.00,,,0.00,WUHU216HW,2013-05-03 05:08:00,
2013-05-03 01:13:00,49.6,41.9,29.91,SE,135,0.0,0.0,75,0.00,,,0.00,WUHU216HW,2013-05-03 05:13:00,
2013-05-03 01:18:00,49.6,41.9,29.91,SE,135,0.0,0.0,75,0.00,,,0.00,WUHU216HW,2013-05-03 05:18:00,
2013-05-03 01:23:00,49.2,41.6,29.91,SE,135,0.0,0.0,75,0.00,,,0.00,WUHU216HW,2013-05-03 05:23:00,
2013-05-03 01:28:00,49.2,41.6,29.91,SE,135,0.0,0.0,75,0.00,,,0.00,WUHU216HW,2013-05-03 05:28:00,
2013-05-03 01:33:00,49.2,41.4,29.91,SE,135,0.0,0.0,75,0.00,,,0.00,WUHU216HW,2013-05-03 05:33:00,
2013-05-03 01:38:00,49.1,41.7,29.92,SE,135,0.0,0.0,76,0.00,,,0.00,WUHU216HW,2013-05-03 05:38:00,
2013-05-03 01:43:00,48.9,41.6,29.92,SE,135,0.0,0.0,76,0.00,,,0.00,WUHU216HW,2013-05-03 05:43:00,
2013-05-03 01:48:00,48.9,41.9,29.91,SE,135,0.0,0.0,77,0.00,,,0.00,WUHU216HW,2013-05-03 05:48:00,
2013-05-03 01:53:00,48.7,41.7,29.91,SE,135,0.0,0.0,77,0.00,,,0.00,WUHU216HW,2013-05-03 05:53:00,
2013-05-03 01:58:00,48.7,41.7,29.91,SE,135,0.0,0.0,77,0.00,,,0.00,WUHU216HW,2013-05-03 05:58:00,
2013-05-03 02:03:00,48.7,41.7,29.91,SE,135,0.0,0.0,77,0.00,,,0.00,WUHU216HW,2013-05-03 06:03:00,
2013-05-03 02:08:00,48.5,41.5,29.91,SE,135,0.0,0.0,77,0.00,,,0.00,WUHU216HW,2013-05-03 06:08:00,
2013-05-03 02:13:00,48.3,41.4,29.91,SE,135,0.0,0.0,77,0.00,,,0.00,WUHU216HW,2013-05-03 06:13:00,
2013-05-03 02:18:00,48.3,41.4,29.90,SE,135,0.0,0.0,77,0.00,,,0.00,WUHU216HW,2013-05-03 06:18:00,
2013-05-03 02:23:00,48.3,41.4,29.90,SE,135,0.0,0.0,77,0.00,,,0.00,WUHU216HW,2013-05-03 06:23:00,
2013-05-03 02:28:00,48.2,41.2,29.90,SE,135,0.0,0.0,77,0.00,,,0.00,WUHU216HW,2013-05-03 06:28:00,
2013-05-03 02:33:00,48.2,41.5,29.90,SE,135,0.0,0.0,78,0.00,,,0.00,WUHU216HW,2013-05-03 06:33:00,
2013-05-03 02:38:00,48.2,41.5,29.90,SE,135,0.0,0.0,78,0.00,,,0.00,WUHU216HW,2013-05-03 06:38:00,
2013-05-03 02:43:00,48.0,41.4,29.91,SE,135,0.0,0.0,78,0.00,,,0.00,WUHU216HW,2013-05-03 06:43:00,
2013-05-03 02:48:00,48.2,41.9,29.90,SE,135,0.0,0.0,79,0.00,,,0.00,WUHU216HW,2013-05-03 06:48:00,
2013-05-03 02:53:00,48.2,41.9,29.90,SE,135,0.0,0.0,79,0.00,,,0.00,WUHU216HW,2013-05-03 06:53:00,
2013-05-03 02:58:00,48.3,42.0,29.90,SE,135,0.0,0.0,79,0.00,,,0.00,WUHU216HW,2013-05-03 06:58:00,
2013-05-03 03:03:00,48.5,42.2,29.90,SE,135,0.0,0.0,79,0.00,,,0.00,WUHU216HW,2013-05-03 07:03:00,
2013-05-03 03:08:00,48.5,42.2,29.90,East,90,0.0,0.0,79,0.00,,,0.00,WUHU216HW,2013-05-03 07:08:00,
2013-05-03 03:14:00,48.7,42.4,29.90,ENE,68,0.0,0.0,79,0.00,,,0.00,WUHU216HW,2013-05-03 07:14:00,
2013-05-03 03:19:00,49.2,42.9,29.90,ENE,68,0.0,0.0,79,0.00,,,0.00,WUHU216HW,2013-05-03 07:19:00,
2013-05-03 03:24:00,49.6,43.0,29.90,ENE,68,0.0,0.0,78,0.00,,,0.00,WUHU216HW,2013-05-03 07:24:00,
2013-05-03 03:29:00,50.0,43.3,29.90,ENE,68,0.0,2.2,78,0.00,,,0.00,WUHU216HW,2013-05-03 07:29:00,
2013-05-03 03:34:00,50.3,43.3,29.90,ENE,68,0.0,4.4,77,0.00,,,0.00,WUHU216HW,2013-05-03 07:34:00,
2013-05-03 03:39:00,50.7,43.7,29.90,ENE,68,0.0,4.4,76,0.00,,,0.00,WUHU216HW,2013-05-03 07:39:00,
2013-05-03 03:44:00,50.7,43.4,29.90,ENE,68,0.0,0.0,76,0.00,,,0.00,WUHU216HW,2013-05-03 07:44:00,
2013-05-03 03:49:00,50.7,43.4,29.90,ENE,68,0.0,0.0,76,0.00,,,0.00,WUHU216HW,2013-05-03 07:49:00,
2013-05-03 03:54:00,50.5,42.8,29.90,ENE,68,0.0,0.0,75,0.00,,,0.00,WUHU216HW,2013-05-03 07:54:00,
2013-05-03 03:59:00,50.5,42.8,29.90,ENE,68,0.0,0.0,75,0.00,,,0.00,WUHU216HW,2013-05-03 07:59:00,
2013-05-03 04:04:00,50.3,42.7,29.90,ENE,68,0.0,0.0,75,0.00,,,0.00,WUHU216HW,2013-05-03 08:04:00,
2013-05-03 04:09:00,50.0,42.3,29.90,ENE,68,0.0,0.0,75,0.00,,,0.00,WUHU216HW,2013-05-03 08:09:00,
2013-05-03 04:14:00,49.6,41.9,29.90,ENE,68,0.0,0.0,75,0.00,,,0.00,WUHU216HW,2013-05-03 08:14:00,
2013-05-03 04:20:00,49.1,41.7,29.91,ENE,68,0.0,0.0,76,0.00,,,0.00,WUHU216HW,2013-05-03 08:20:00,
2013-05-03 04:25:00,48.7,41.4,29.90,ENE,68,0.0,0.0,76,0.00,,,0.00,WUHU216HW,2013-05-03 08:25:00,
2013-05-03 04:30:00,48.3,41.5,29.91,ENE,68,0.0,0.0,77,0.00,,,0.00,WUHU216HW,2013-05-03 08:30:00,
2013-05-03 04:35:00,48.2,41.2,29.91,NE,45,0.0,0.0,77,0.00,,,0.00,WUHU216HW,2013-05-03 08:35:00,
2013-05-03 04:40:00,48.0,41.0,29.91,NE,45,0.0,0.0,77,0.00,,,0.00,WUHU216HW,2013-05-03 08:40:00,
2013-05-03 04:45:00,47.8,40.9,29.91,NE,45,0.0,0.0,77,0.00,,,0.00,WUHU216HW,2013-05-03 08:45:00,
2013-05-03 04:50:00,47.8,40.9,29.91,NE,45,0.0,0.0,77,0.00,,,0.00,WUHU216HW,2013-05-03 08:50:00,
2013-05-03 04:55:00,47.4,40.5,29.91,NE,45,0.0,0.0,77,0.00,,,0.00,WUHU216HW,2013-05-03 08:55:00,
2013-05-03 05:00:00,47.3,40.7,29.91,NE,45,0.0,0.0,78,0.00,,,0.00,WUHU216HW,2013-05-03 09:00:00,
2013-05-03 05:05:00,47.1,40.6,29.91,NE,45,0.0,0.0,78,0.00,,,0.00,WUHU216HW,2013-05-03 09:05:00,
2013-05-03 05:10:00,46.9,40.4,29.92,NE,45,0.0,0.0,78,0.00,,,0.00,WUHU216HW,2013-05-03 09:10:00,
2013-05-03 05:15:00,46.7,40.2,29.92,NE,45,0.0,0.0,78,0.00,,,0.00,WUHU216HW,2013-05-03 09:15:00,
2013-05-03 05:20:00,46.5,40.4,29.91,ENE,68,0.0,0.0,79,0.00,,,0.00,WUHU216HW,2013-05-03 09:20:00,
2013-05-03 05:25:00,46.5,40.4,29.92,ENE,68,0.0,0.0,79,0.00,,,0.00,WUHU216HW,2013-05-03 09:25:00,
2013-05-03 05:30:00,46.5,40.1,29.92,ENE,68,0.0,0.0,78,0.00,,,0.00,WUHU216HW,2013-05-03 09:30:00,
2013-05-03 05:35:00,46.5,39.9,29.92,NE,45,0.0,0.0,78,0.00,,,0.00,WUHU216HW,2013-05-03 09:35:00,
2013-05-03 05:40:00,46.4,39.7,29.92,ENE,68,0.0,0.0,78,0.00,,,0.00,WUHU216HW,2013-05-03 09:40:00,
2013-05-03 05:45:00,46.4,39.9,29.92,ENE,68,0.0,0.0,78,0.00,,,0.00,WUHU216HW,2013-05-03 09:45:00,
2013-05-03 05:50:00,46.4,39.9,29.93,South,180,0.0,0.0,78,0.00,,,0.00,WUHU216HW,2013-05-03 09:50:00,
2013-05-03 05:55:00,46.5,40.1,29.93,ESE,113,0.0,0.0,78,0.00,,,0.00,WUHU216HW,2013-05-03 09:55:00,
2013-05-03 06:00:00,46.4,40.1,29.93,ESE,113,0.0,0.0,78,0.00,,,0.00,WUHU216HW,2013-05-03 10:00:00,
2013-05-03 06:05:00,46.2,39.7,29.93,ESE,113,0.0,0.0,78,0.00,,,0.00,WUHU216HW,2013-05-03 10:05:00,
2013-05-03 06:11:00,46.2,39.7,29.93,SSE,158,0.0,0.0,78,0.00,,,0.00,WUHU216HW,2013-05-03 10:11:00,
2013-05-03 06:16:00,46.5,40.1,29.93,SSE,158,0.0,0.0,78,0.00,,,0.00,WUHU216HW,2013-05-03 10:16:00,
2013-05-03 06:21:00,46.5,40.1,29.94,ESE,113,0.0,0.0,78,0.00,,,0.00,WUHU216HW,2013-05-03 10:21:00,
2013-05-03 06:26:00,46.7,40.2,29.94,ESE,113,0.0,0.0,78,0.00,,,0.00,WUHU216HW,2013-05-03 10:26:00,
2013-05-03 06:31:00,46.7,40.2,29.94,NNE,23,0.0,0.0,78,0.00,,,0.00,WUHU216HW,2013-05-03 10:31:00,
2013-05-03 06:36:00,46.9,40.4,29.95,NNE,23,0.0,0.0,78,0.00,,,0.00,WUHU216HW,2013-05-03 10:36:00,
2013-05-03 06:41:00,47.1,40.6,29.94,North,0,0.0,0.0,78,0.00,,,0.00,WUHU216HW,2013-05-03 10:41:00,
2013-05-03 06:46:00,47.3,40.7,29.95,North,0,0.0,0.0,78,0.00,,,0.00,WUHU216HW,2013-05-03 10:46:00,
2013-05-03 06:51:00,47.4,40.9,29.94,North,0,0.0,0.0,78,0.00,,,0.00,WUHU216HW,2013-05-03 10:51:00,
2013-05-03 06:56:00,47.6,41.0,29.95,North,0,0.0,0.0,78,0.00,,,0.00,WUHU216HW,2013-05-03 10:56:00,
2013-05-03 07:01:00,47.8,41.2,29.95,NNW,338,0.0,0.0,78,0.00,,,0.00,WUHU216HW,2013-05-03 11:01:00,
2013-05-03 07:06:00,48.0,41.4,29.95,NNW,338,0.0,0.0,78,0.00,,,0.00,WUHU216HW,2013-05-03 11:06:00,
2013-05-03 07:11:00,48.5,41.9,29.96,NNW,338,0.0,0.0,78,0.00,,,0.00,WUHU216HW,2013-05-03 11:11:00,
2013-05-03 07:16:00,48.9,42.2,29.96,ENE,68,0.0,0.0,78,0.00,,,0.00,WUHU216HW,2013-05-03 11:16:00,
2013-05-03 07:21:00,49.2,42.6,29.96,ENE,68,0.0,0.0,78,0.00,,,0.00,WUHU216HW,2013-05-03 11:21:00,
2013-05-03 07:26:00,49.8,43.1,29.96,South,180,0.0,0.0,78,0.00,,,0.00,WUHU216HW,2013-05-03 11:26:00,
2013-05-03 07:31:00,50.3,43.7,29.96,NE,45,0.0,2.9,78,0.00,,,0.00,WUHU216HW,2013-05-03 11:31:00,
2013-05-03 07:36:00,50.7,44.2,29.96,ESE,113,6.0,6.0,78,0.00,,,0.00,WUHU216HW,2013-05-03 11:36:00,
2013-05-03 07:41:00,51.2,44.6,29.97,ENE,68,0.0,6.0,78,0.00,,,0.00,WUHU216HW,2013-05-03 11:41:00,
2013-05-03 07:46:00,51.8,45.1,29.97,ENE,68,0.0,0.0,78,0.00,,,0.00,WUHU216HW,2013-05-03 11:46:00,
2013-05-03 07:51:00,52.3,45.3,29.97,South,180,0.0,0.0,77,0.00,,,0.00,WUHU216HW,2013-05-03 11:51:00,
2013-05-03 07:56:00,52.5,45.5,29.97,WSW,248,4.6,4.6,77,0.00,,,0.00,WUHU216HW,2013-05-03 11:56:00,
2013-05-03 08:01:00,52.7,45.3,29.97,SSW,203,0.0,4.6,76,0.00,,,0.00,WUHU216HW,2013-05-03 12:01:00,
2013-05-03 08:06:00,52.8,45.1,29.97,SW,225,0.0,0.0,75,0.00,,,0.00,WUHU216HW,2013-05-03 12:06:00,
2013-05-03 08:11:00,53.2,45.1,29.98,SW,225,2.0,2.4,74,0.00,,,0.00,WUHU216HW,2013-05-03 12:11:00,
2013-05-03 08:16:00,53.2,44.7,29.97,SSE,158,0.0,2.4,73,0.00,,,0.00,WUHU216HW,2013-05-03 12:16:00,
2013-05-03 08:21:00,53.4,44.6,29.97,NNE,23,0.0,2.4,72,0.00,,,0.00,WUHU216HW,2013-05-03 12:21:00,
2013-05-03 08:26:00,53.7,44.5,29.97,North,0,1.1,1.1,71,0.00,,,0.00,WUHU216HW,2013-05-03 12:26:00,
2013-05-03 08:31:00,54.1,44.9,29.97,NE,45,0.0,6.2,71,0.00,,,0.00,WUHU216HW,2013-05-03 12:31:00,
2013-05-03 08:36:00,54.3,45.4,29.97,SE,135,0.0,6.2,72,0.00,,,0.00,WUHU216HW,2013-05-03 12:36:00,
2013-05-03 08:42:00,54.6,45.4,29.97,ESE,113,0.0,5.5,71,0.00,,,0.00,WUHU216HW,2013-05-03 12:42:00,
2013-05-03 08:46:00,55.2,46.0,29.98,East,90,0.0,7.1,71,0.00,,,0.00,WUHU216HW,2013-05-03 12:46:00,
2013-05-03 08:52:00,55.5,46.0,29.98,SE,135,0.0,7.1,70,0.00,,,0.00,WUHU216HW,2013-05-03 12:52:00,
2013-05-03 08:57:00,56.3,46.6,29.99,NE,45,0.0,6.4,70,0.00,,,0.00,WUHU216HW,2013-05-03 12:57:00,
2013-05-03 09:02:00,57.0,46.8,29.98,ENE,68,0.0,0.6,69,0.00,,,0.00,WUHU216HW,2013-05-03 13:02:00,
2013-05-03 09:07:00,58.2,47.3,29.98,South,180,0.0,0.0,67,0.00,,,0.00,WUHU216HW,2013-05-03 13:07:00,
2013-05-03 09:12:00,58.8,47.4,29.98,West,270,0.0,0.0,66,0.00,,,0.00,WUHU216HW,2013-05-03 13:12:00,
2013-05-03 09:17:00,59.5,47.7,29.98,ESE,113,0.0,0.6,65,0.00,,,0.00,WUHU216HW,2013-05-03 13:17:00,
2013-05-03 09:22:00,60.0,47.8,29.98,ESE,113,0.0,0.6,64,0.00,,,0.00,WUHU216HW,2013-05-03 13:22:00,
2013-05-03 09:27:00,60.9,48.5,29.99,NW,315,0.0,0.0,63,0.00,,,0.00,WUHU216HW,2013-05-03 13:27:00,
2013-05-03 09:32:00,61.3,48.2,29.99,North,0,0.0,1.1,62,0.00,,,0.00,WUHU216HW,2013-05-03 13:32:00,
2013-05-03 09:37:00,61.5,48.0,29.99,SE,135,0.0,1.1,61,0.00,,,0.00,WUHU216HW,2013-05-03 13:37:00,
2013-05-03 09:42:00,61.7,47.7,29.99,South,180,0.0,0.0,60,0.00,,,0.00,WUHU216HW,2013-05-03 13:42:00,
2013-05-03 09:47:00,62.2,48.2,29.99,ENE,68,0.0,1.7,60,0.00,,,0.00,WUHU216HW,2013-05-03 13:47:00,
2013-05-03 09:52:00,62.4,47.9,29.98,East,90,0.0,5.5,59,0.00,,,0.00,WUHU216HW,2013-05-03 13:52:00,
2013-05-03 09:57:00,62.4,47.4,29.98,SSE,158,1.7,5.5,58,0.00,,,0.00,WUHU216HW,2013-05-03 13:57:00,
2013-05-03 10:02:00,62.9,47.9,29.99,SE,135,3.1,3.1,58,0.00,,,0.00,WUHU216HW,2013-05-03 14:02:00,
2013-05-03 10:07:00,63.3,47.2,29.98,ENE,68,0.0,3.1,56,0.00,,,0.00,WUHU216HW,2013-05-03 14:07:00,
2013-05-03 10:12:00,64.0,48.3,29.98,SSW,203,0.0,0.0,57,0.00,,,0.00,WUHU216HW,2013-05-03 14:12:00,
2013-05-03 10:17:00,64.9,48.2,29.99,NE,45,3.3,3.5,55,0.00,,,0.00,WUHU216HW,2013-05-03 14:17:00,
2013-05-03 10:22:00,65.4,47.8,29.99,NE,45,1.3,7.6,53,0.00,,,0.00,WUHU216HW,2013-05-03 14:22:00,
2013-05-03 10:27:00,65.4,47.8,29.99,ENE,68,1.3,7.6,53,0.00,,,0.00,WUHU216HW,2013-05-03 14:27:00,
2013-05-03 10:32:00,66.0,48.3,29.99,ENE,68,0.0,3.5,52,0.00,,,0.00,WUHU216HW,2013-05-03 14:32:00,
2013-05-03 10:37:00,66.5,47.4,29.99,ENE,68,5.3,6.0,50,0.00,,,0.00,WUHU216HW,2013-05-03 14:37:00,
2013-05-03 10:42:00,66.3,47.7,29.99,NNW,338,9.8,9.8,51,0.00,,,0.00,WUHU216HW,2013-05-03 14:42:00,
2013-05-03 10:47:00,66.0,46.3,29.99,ESE,113,2.9,9.8,49,0.00,,,0.00,WUHU216HW,2013-05-03 14:47:00,
2013-05-03 10:52:00,66.0,46.9,29.99,NE,45,0.0,6.9,50,0.00,,,0.00,WUHU216HW,2013-05-03 14:52:00,
2013-05-03 10:57:00,66.0,46.9,29.99,South,180,2.4,6.7,50,0.00,,,0.00,WUHU216HW,2013-05-03 14:57:00,
2013-05-03 11:02:00,66.7,47.6,29.99,SE,135,4.0,6.9,50,0.00,,,0.00,WUHU216HW,2013-05-03 15:02:00,
2013-05-03 11:07:00,67.6,49.3,29.99,East,90,3.3,6.9,52,0.00,,,0.00,WUHU216HW,2013-05-03 15:07:00,
2013-05-03 11:12:00,68.1,46.3,29.99,ENE,68,3.3,10.7,46,0.00,,,0.00,WUHU216HW,2013-05-03 15:12:00,
2013-05-03 11:17:00,67.2,46.3,29.98,East,90,2.9,10.7,47,0.00,,,0.00,WUHU216HW,2013-05-03 15:17:00,
2013-05-03 11:22:00,67.6,47.2,29.98,SE,135,0.0,10.7,48,0.00,,,0.00,WUHU216HW,2013-05-03 15:22:00,
2013-05-03 11:27:00,68.1,47.7,29.98,SSE,158,0.0,2.6,48,0.00,,,0.00,WUHU216HW,2013-05-03 15:27:00,
2013-05-03 11:32:00,68.7,48.2,29.98,SSE,158,0.0,3.1,48,0.00,,,0.00,WUHU216HW,2013-05-03 15:32:00,
2013-05-03 11:37:00,69.4,47.8,29.98,SSE,158,2.9,3.3,46,0.00,,,0.00,WUHU216HW,2013-05-03 15:37:00,
2013-05-03 11:42:00,69.9,48.1,29.98,North,0,8.0,8.0,46,0.00,,,0.00,WUHU216HW,2013-05-03 15:42:00,
2013-05-03 11:47:00,69.9,47.5,29.98,SE,135,4.4,8.0,45,0.00,,,0.00,WUHU216HW,2013-05-03 15:47:00,
2013-05-03 11:52:00,70.3,47.8,29.98,WSW,248,0.0,6.2,45,0.00,,,0.00,WUHU216HW,2013-05-03 15:52:00,
2013-05-03 11:57:00,70.7,48.2,29.97,ENE,68,0.0,6.2,45,0.00,,,0.00,WUHU216HW,2013-05-03 15:57:00,
2013-05-03 12:03:00,70.7,47.6,29.97,ENE,68,0.0,8.0,44,0.00,,,0.00,WUHU216HW,2013-05-03 16:03:00,
2013-05-03 12:08:00,71.0,47.9,29.97,SE,135,0.0,8.0,44,0.00,,,0.00,WUHU216HW,2013-05-03 16:08:00,
2013-05-03 12:13:00,71.2,46.9,29.97,NNW,338,0.0,5.8,42,0.00,,,0.00,WUHU216HW,2013-05-03 16:13:00,
2013-05-03 12:18:00,71.2,48.0,29.97,SSE,158,4.6,6.2,44,0.00,,,0.00,WUHU216HW,2013-05-03 16:18:00,
2013-05-03 12:23:00,71.7,47.9,29.96,East,90,3.1,6.2,43,0.00,,,0.00,WUHU216HW,2013-05-03 16:23:00,
2013-05-03 12:28:00,71.7,46.9,29.96,NE,45,6.4,7.8,41,0.00,,,0.00,WUHU216HW,2013-05-03 16:28:00,
2013-05-03 12:33:00,71.7,46.7,29.96,East,90,0.0,8.5,41,0.00,,,0.00,WUHU216HW,2013-05-03 16:33:00,
2013-05-03 12:38:00,71.7,47.3,29.95,ENE,68,6.4,8.5,42,0.00,,,0.00,WUHU216HW,2013-05-03 16:38:00,
2013-05-03 12:43:00,71.9,46.9,29.95,ESE,113,2.6,6.4,41,0.00,,,0.00,WUHU216HW,2013-05-03 16:43:00,
2013-05-03 12:48:00,72.3,47.8,29.95,SW,225,2.0,4.4,42,0.00,,,0.00,WUHU216HW,2013-05-03 16:48:00,
2013-05-03 12:53:00,72.6,47.0,29.95,ESE,113,1.5,9.8,40,0.00,,,0.00,WUHU216HW,2013-05-03 16:53:00,
2013-05-03 12:58:00,73.0,48.5,29.95,SE,135,13.4,13.4,42,0.00,,,0.00,WUHU216HW,2013-05-03 16:58:00,
2013-05-03 13:03:00,73.0,47.9,29.95,South,180,0.0,13.4,41,0.00,,,0.00,WUHU216HW,2013-05-03 17:03:00,
2013-05-03 13:08:00,73.2,48.0,29.95,SSE,158,0.0,8.5,41,0.00,,,0.00,WUHU216HW,2013-05-03 17:08:00,
2013-05-03 13:13:00,73.2,47.4,29.95,South,180,7.1,9.1,40,0.00,,,0.00,WUHU216HW,2013-05-03 17:13:00,
2013-05-03 13:18:00,73.4,48.2,29.95,ENE,68,6.0,9.1,41,0.00,,,0.00,WUHU216HW,2013-05-03 17:18:00,
2013-05-03 13:23:00,73.7,47.9,29.95,SSE,158,2.9,6.4,40,0.00,,,0.00,WUHU216HW,2013-05-03 17:23:00,
2013-05-03 13:28:00,73.9,47.3,29.94,NE,45,4.4,6.7,39,0.00,,,0.00,WUHU216HW,2013-05-03 17:28:00,
2013-05-03 13:33:00,73.4,46.1,29.94,NE,45,4.2,6.7,38,0.00,,,0.00,WUHU216HW,2013-05-03 17:33:00,
2013-05-03 13:38:00,73.2,47.4,29.94,SSW,203,3.5,5.8,40,0.00,,,0.00,WUHU216HW,2013-05-03 17:38:00,
2013-05-03 13:43:00,73.5,47.8,29.94,NNE,23,4.2,4.2,40,0.00,,,0.00,WUHU216HW,2013-05-03 17:43:00,
2013-05-03 13:48:00,73.9,47.3,29.93,NNE,23,0.0,13.1,39,0.00,,,0.00,WUHU216HW,2013-05-03 17:48:00,
2013-05-03 13:53:00,74.1,47.5,29.93,SE,135,1.5,13.1,39,0.00,,,0.00,WUHU216HW,2013-05-03 17:53:00,
2013-05-03 13:58:00,74.1,46.7,29.93,SSW,203,0.0,11.6,38,0.00,,,0.00,WUHU216HW,2013-05-03 17:58:00,
2013-05-03 14:03:00,73.9,45.8,29.93,SSE,158,0.0,11.6,37,0.00,,,0.00,WUHU216HW,2013-05-03 18:03:00,
2013-05-03 14:08:00,74.1,46.7,29.93,NE,45,0.8,8.7,38,0.00,,,0.00,WUHU216HW,2013-05-03 18:08:00,
2013-05-03 14:14:00,74.4,46.3,29.93,SE,135,0.0,10.2,37,0.00,,,0.00,WUHU216HW,2013-05-03 18:14:00,
2013-05-03 14:19:00,74.4,46.3,29.93,SSE,158,1.1,10.2,37,0.00,,,0.00,WUHU216HW,2013-05-03 18:19:00,
2013-05-03 14:24:00,74.8,47.4,29.92,South,180,2.4,4.2,38,0.00,,,0.00,WUHU216HW,2013-05-03 18:24:00,
2013-05-03 14:29:00,75.0,46.0,29.92,South,180,0.0,5.3,36,0.00,,,0.00,WUHU216HW,2013-05-03 18:29:00,
2013-05-03 14:34:00,75.2,46.2,29.92,ESE,113,0.0,7.3,36,0.00,,,0.00,WUHU216HW,2013-05-03 18:34:00,
2013-05-03 14:39:00,74.8,45.1,29.92,ESE,113,0.0,9.6,35,0.00,,,0.00,WUHU216HW,2013-05-03 18:39:00,
2013-05-03 14:44:00,74.6,45.7,29.92,NNW,338,0.0,11.6,36,0.00,,,0.00,WUHU216HW,2013-05-03 18:44:00,
2013-05-03 14:49:00,75.0,46.0,29.92,SW,225,0.0,11.6,36,0.00,,,0.00,WUHU216HW,2013-05-03 18:49:00,
2013-05-03 14:54:00,75.3,47.1,29.91,South,180,0.0,3.8,36,0.00,,,0.00,WUHU216HW,2013-05-03 18:54:00,
2013-05-03 14:59:00,75.3,44.9,29.91,ESE,113,2.0,10.9,34,0.00,,,0.00,WUHU216HW,2013-05-03 18:59:00,
2013-05-03 15:04:00,75.0,46.0,29.91,ESE,113,0.0,10.9,36,0.00,,,0.00,WUHU216HW,2013-05-03 19:04:00,
2013-05-03 15:09:00,75.2,46.2,29.91,SE,135,0.0,9.6,36,0.00,,,0.00,WUHU216HW,2013-05-03 19:09:00,
2013-05-03 15:14:00,75.0,44.5,29.91,SSE,158,0.0,10.0,34,0.00,,,0.00,WUHU216HW,2013-05-03 19:14:00,
2013-05-03 15:19:00,75.0,45.3,29.91,SE,135,0.0,10.0,34,0.00,,,0.00,WUHU216HW,2013-05-03 19:19:00,
2013-05-03 15:24:00,75.0,44.5,29.90,East,90,9.3,9.3,34,0.00,,,0.00,WUHU216HW,2013-05-03 19:24:00,
2013-05-03 15:29:00,75.0,46.0,29.90,SSW,203,2.6,9.3,36,0.00,,,0.00,WUHU216HW,2013-05-03 19:29:00,
2013-05-03 15:34:00,75.5,46.5,29.90,East,90,6.9,6.9,36,0.00,,,0.00,WUHU216HW,2013-05-03 19:34:00,
2013-05-03 15:39:00,75.3,44.9,29.90,NE,45,0.6,7.8,34,0.00,,,0.00,WUHU216HW,2013-05-03 19:39:00,
2013-05-03 15:44:00,75.3,44.9,29.90,NNE,23,0.0,7.8,34,0.00,,,0.00,WUHU216HW,2013-05-03 19:44:00,
2013-05-03 15:49:00,75.5,46.5,29.90,ESE,113,0.0,7.8,36,0.00,,,0.00,WUHU216HW,2013-05-03 19:49:00,
2013-05-03 15:54:00,75.9,46.9,29.90,SE,135,8.2,8.2,36,0.00,,,0.00,WUHU216HW,2013-05-03 19:54:00,
2013-05-03 15:59:00,75.9,45.3,29.89,SSE,158,3.3,8.2,34,0.00,,,0.00,WUHU216HW,2013-05-03 19:59:00,
2013-05-03 16:04:00,75.7,45.2,29.89,NE,45,5.3,5.3,34,0.00,,,0.00,WUHU216HW,2013-05-03 20:04:00,
2013-05-03 16:09:00,75.3,44.5,29.89,NE,45,1.3,7.1,34,0.00,,,0.00,WUHU216HW,2013-05-03 20:09:00,
2013-05-03 16:14:00,74.8,45.1,29.88,ESE,113,5.3,7.1,35,0.00,,,0.00,WUHU216HW,2013-05-03 20:14:00,
2013-05-03 16:19:00,75.0,44.5,29.88,ENE,68,10.0,10.0,34,0.00,,,0.00,WUHU216HW,2013-05-03 20:19:00,
2013-05-03 16:25:00,74.8,44.4,29.89,SSE,158,0.0,10.0,34,0.00,,,0.00,WUHU216HW,2013-05-03 20:25:00,
2013-05-03 16:30:00,74.8,44.4,29.88,ESE,113,5.1,9.8,34,0.00,,,0.00,WUHU216HW,2013-05-03 20:30:00,
2013-05-03 16:35:00,74.4,44.0,29.89,East,90,1.1,10.9,34,0.00,,,0.00,WUHU216HW,2013-05-03 20:35:00,
2013-05-03 16:40:00,74.4,44.8,29.88,West,270,0.0,10.9,35,0.00,,,0.00,WUHU216HW,2013-05-03 20:40:00,
2013-05-03 16:45:00,74.8,45.9,29.89,NE,45,3.8,4.9,36,0.00,,,0.00,WUHU216HW,2013-05-03 20:45:00,
2013-05-03 16:50:00,74.8,44.4,29.88,SSE,158,2.4,4.0,34,0.00,,,0.00,WUHU216HW,2013-05-03 20:50:00,
2013-05-03 16:55:00,75.0,44.4,29.88,ESE,113,8.2,8.2,34,0.00,,,0.00,WUHU216HW,2013-05-03 20:55:00,
2013-05-03 17:00:00,74.4,44.0,29.88,SE,135,0.6,8.2,34,0.00,,,0.00,WUHU216HW,2013-05-03 21:00:00,
2013-05-03 17:05:00,74.3,44.6,29.88,East,90,10.7,10.7,35,0.00,,,0.00,WUHU216HW,2013-05-03 21:05:00,
2013-05-03 17:10:00,74.1,44.5,29.88,ESE,113,2.9,10.7,35,0.00,,,0.00,WUHU216HW,2013-05-03 21:10:00,
2013-05-03 17:15:00,73.9,44.3,29.88,ESE,113,0.0,6.7,35,0.00,,,0.00,WUHU216HW,2013-05-03 21:15:00,
2013-05-03 17:20:00,74.1,46.0,29.88,ESE,113,2.9,2.9,37,0.00,,,0.00,WUHU216HW,2013-05-03 21:20:00,
2013-05-03 17:25:00,74.1,46.0,29.88,East,90,2.0,5.3,37,0.00,,,0.00,WUHU216HW,2013-05-03 21:25:00,
2013-05-03 17:30:00,73.7,44.2,29.88,ESE,113,0.0,9.3,35,0.00,,,0.00,WUHU216HW,2013-05-03 21:30:00,
2013-05-03 17:35:00,73.2,44.4,29.88,SE,135,7.3,9.3,36,0.00,,,0.00,WUHU216HW,2013-05-03 21:35:00,
2013-05-03 17:40:00,73.0,45.0,29.88,ESE,113,0.0,8.5,37,0.00,,,0.00,WUHU216HW,2013-05-03 21:40:00,
2013-05-03 17:45:00,72.8,44.9,29.88,SE,135,1.3,3.8,37,0.00,,,0.00,WUHU216HW,2013-05-03 21:45:00,
2013-05-03 17:50:00,73.0,45.0,29.88,ENE,68,2.2,7.6,37,0.00,,,0.00,WUHU216HW,2013-05-03 21:50:00,
2013-05-03 17:56:00,72.8,45.6,29.88,East,90,0.0,7.6,38,0.00,,,0.00,WUHU216HW,2013-05-03 21:56:00,
2013-05-03 18:01:00,72.6,44.7,29.88,SE,135,0.0,11.1,37,0.00,,,0.00,WUHU216HW,2013-05-03 22:01:00,
2013-05-03 18:06:00,72.3,45.1,29.88,ESE,113,5.5,11.1,38,0.00,,,0.00,WUHU216HW,2013-05-03 22:06:00,
2013-05-03 18:11:00,71.9,44.7,29.89,SW,225,0.0,9.8,38,0.00,,,0.00,WUHU216HW,2013-05-03 22:11:00,
2013-05-03 18:16:00,71.6,44.5,29.89,East,90,0.6,12.0,38,0.00,,,0.00,WUHU216HW,2013-05-03 22:16:00,
2013-05-03 18:21:00,71.2,44.9,29.88,SE,135,0.0,12.0,39,0.00,,,0.00,WUHU216HW,2013-05-03 22:21:00,
2013-05-03 18:26:00,70.7,44.6,29.89,SE,135,2.2,10.5,39,0.00,,,0.00,WUHU216HW,2013-05-03 22:26:00,
2013-05-03 18:31:00,70.5,44.4,29.88,East,90,0.0,10.0,39,0.00,,,0.00,WUHU216HW,2013-05-03 22:31:00,
2013-05-03 18:36:00,70.3,44.9,29.88,East,90,5.1,8.9,40,0.00,,,0.00,WUHU216HW,2013-05-03 22:36:00,
2013-05-03 18:41:00,69.9,45.1,29.89,ESE,113,0.0,8.9,41,0.00,,,0.00,WUHU216HW,2013-05-03 22:41:00,
2013-05-03 18:46:00,69.6,44.8,29.89,ESE,113,6.0,7.8,41,0.00,,,0.00,WUHU216HW,2013-05-03 22:46:00,
2013-05-03 18:51:00,69.0,44.3,29.89,SE,135,0.0,6.0,41,0.00,,,0.00,WUHU216HW,2013-05-03 22:51:00,
2013-05-03 18:56:00,68.3,44.3,29.89,SE,135,6.0,8.0,42,0.00,,,0.00,WUHU216HW,2013-05-03 22:56:00,
2013-05-03 19:01:00,67.6,44.2,29.89,East,90,6.7,8.0,43,0.00,,,0.00,WUHU216HW,2013-05-03 23:01:00,
2013-05-03 19:06:00,67.1,44.3,29.89,ESE,113,9.6,9.6,44,0.00,,,0.00,WUHU216HW,2013-05-03 23:06:00,
2013-05-03 19:11:00,66.5,43.8,29.90,SE,135,6.2,9.6,44,0.00,,,0.00,WUHU216HW,2013-05-03 23:11:00,
2013-05-03 19:16:00,65.8,43.8,29.89,SE,135,0.0,8.9,45,0.00,,,0.00,WUHU216HW,2013-05-03 23:16:00,
2013-05-03 19:22:00,65.3,43.8,29.90,SSE,158,1.1,8.9,46,0.00,,,0.00,WUHU216HW,2013-05-03 23:22:00,
2013-05-03 19:27:00,64.9,44.1,29.90,SSE,158,2.9,8.7,47,0.00,,,0.00,WUHU216HW,2013-05-03 23:27:00,
2013-05-03 19:32:00,64.2,43.4,29.90,ESE,113,1.5,8.7,47,0.00,,,0.00,WUHU216HW,2013-05-03 23:32:00,
2013-05-03 19:37:00,64.0,43.8,29.91,ENE,68,0.0,7.3,48,0.00,,,0.00,WUHU216HW,2013-05-03 23:37:00,
2013-05-03 19:42:00,63.3,43.1,29.90,East,90,3.3,10.5,48,0.00,,,0.00,WUHU216HW,2013-05-03 23:42:00,
2013-05-03 19:47:00,62.9,43.4,29.90,SSE,158,0.0,10.5,49,0.00,,,0.00,WUHU216HW,2013-05-03 23:47:00,
2013-05-03 19:52:00,62.4,42.9,29.91,ESE,113,0.0,5.5,49,0.00,,,0.00,WUHU216HW,2013-05-03 23:52:00,
2013-05-03 19:57:00,62.0,42.8,29.91,SE,135,0.0,6.9,49,0.00,,,0.00,WUHU216HW,2013-05-03 23:57:00,
2013-05-03 20:02:00,61.5,42.7,29.91,SE,135,4.2,6.9,50,0.00,,,0.00,WUHU216HW,2013-05-04 00:02:00,
2013-05-03 20:08:00,61.3,42.5,29.91,East,90,2.9,10.0,50,0.00,,,0.00,WUHU216HW,2013-05-04 00:08:00,
2013-05-03 20:13:00,60.8,42.5,29.91,East,90,2.2,10.0,51,0.00,,,0.00,WUHU216HW,2013-05-04 00:13:00,
2013-05-03 20:18:00,60.6,42.3,29.91,East,90,7.3,7.3,51,0.00,,,0.00,WUHU216HW,2013-05-04 00:18:00,
2013-05-03 20:23:00,60.0,41.9,29.91,ESE,113,1.7,7.3,51,0.00,,,0.00,WUHU216HW,2013-05-04 00:23:00,
2013-05-03 20:28:00,59.9,42.2,29.91,SSE,158,0.0,3.8,52,0.00,,,0.00,WUHU216HW,2013-05-04 00:28:00,
2013-05-03 20:33:00,59.5,41.8,29.91,East,90,0.0,0.0,52,0.00,,,0.00,WUHU216HW,2013-05-04 00:33:00,
2013-05-03 20:38:00,59.1,42.0,29.91,SE,135,3.3,3.3,53,0.00,,,0.00,WUHU216HW,2013-05-04 00:38:00,
2013-05-03 20:43:00,58.8,41.7,29.92,East,90,0.0,4.4,53,0.00,,,0.00,WUHU216HW,2013-05-04 00:43:00,
2013-05-03 20:48:00,58.8,41.7,29.92,East,90,0.0,6.2,53,0.00,,,0.00,WUHU216HW,2013-05-04 00:48:00,
2013-05-03 20:53:00,58.4,41.3,29.92,East,90,0.0,6.2,53,0.00,,,0.00,WUHU216HW,2013-05-04 00:53:00,
2013-05-03 20:58:00,58.2,41.2,29.92,East,90,3.8,3.8,53,0.00,,,0.00,WUHU216HW,2013-05-04 00:58:00,
2013-05-03 21:03:00,57.7,41.1,29.92,SE,135,4.2,6.7,54,0.00,,,0.00,WUHU216HW,2013-05-04 01:03:00,
2013-05-03 21:09:00,57.5,41.0,29.92,ENE,68,0.0,6.7,54,0.00,,,0.00,WUHU216HW,2013-05-04 01:09:00,
2013-05-03 21:14:00,57.3,41.3,29.92,East,90,0.0,5.5,55,0.00,,,0.00,WUHU216HW,2013-05-04 01:14:00,
2013-05-03 21:19:00,57.0,41.0,29.93,ESE,113,0.0,1.7,55,0.00,,,0.00,WUHU216HW,2013-05-04 01:19:00,
2013-05-03 21:24:00,56.8,40.8,29.92,East,90,0.0,0.0,55,0.00,,,0.00,WUHU216HW,2013-05-04 01:24:00,
2013-05-03 21:29:00,56.4,40.4,29.92,East,90,0.0,2.0,55,0.00,,,0.00,WUHU216HW,2013-05-04 01:29:00,
2013-05-03 21:34:00,56.4,40.4,29.93,ESE,113,2.6,2.6,55,0.00,,,0.00,WUHU216HW,2013-05-04 01:34:00,
2013-05-03 21:39:00,56.1,40.5,29.93,East,90,1.1,2.6,56,0.00,,,0.00,WUHU216HW,2013-05-04 01:39:00,
2013-05-03 21:44:00,55.9,40.3,29.93,ESE,113,0.0,1.1,56,0.00,,,0.00,WUHU216HW,2013-05-04 01:44:00,
2013-05-03 21:49:00,55.7,40.2,29.93,ESE,113,1.5,1.5,56,0.00,,,0.00,WUHU216HW,2013-05-04 01:49:00,
2013-05-03 21:54:00,55.4,39.8,29.93,ESE,113,0.0,1.5,56,0.00,,,0.00,WUHU216HW,2013-05-04 01:54:00,
2013-05-03 21:59:00,55.2,40.6,29.94,East,90,0.0,0.0,57,0.00,,,0.00,WUHU216HW,2013-05-04 01:59:00,
2013-05-03 22:04:00,55.0,40.4,29.94,ENE,68,0.0,2.4,58,0.00,,,0.00,WUHU216HW,2013-05-04 02:04:00,
2013-05-03 22:09:00,54.8,40.2,29.94,SSW,203,0.0,2.4,58,0.00,,,0.00,WUHU216HW,2013-05-04 02:09:00,
2013-05-03 22:14:00,54.5,39.9,29.94,East,90,0.0,0.0,58,0.00,,,0.00,WUHU216HW,2013-05-04 02:14:00,
2013-05-03 22:20:00,54.3,40.2,29.94,East,90,0.0,0.0,59,0.00,,,0.00,WUHU216HW,2013-05-04 02:20:00,
2013-05-03 22:25:00,53.9,39.9,29.94,South,180,4.6,4.6,59,0.00,,,0.00,WUHU216HW,2013-05-04 02:25:00,
2013-05-03 22:30:00,53.7,40.2,29.94,ESE,113,7.3,7.3,60,0.00,,,0.00,WUHU216HW,2013-05-04 02:30:00,
2013-05-03 22:35:00,53.7,40.6,29.94,NE,45,0.0,7.3,61,0.00,,,0.00,WUHU216HW,2013-05-04 02:35:00,
2013-05-03 22:40:00,53.4,39.9,29.94,SE,135,0.0,0.0,60,0.00,,,0.00,WUHU216HW,2013-05-04 02:40:00,
2013-05-03 22:45:00,53.2,40.1,29.94,ESE,113,0.0,0.0,61,0.00,,,0.00,WUHU216HW,2013-05-04 02:45:00,
2013-05-03 22:50:00,52.8,39.7,29.94,SSE,158,0.0,0.0,61,0.00,,,0.00,WUHU216HW,2013-05-04 02:50:00,
2013-05-03 22:55:00,52.7,40.0,29.94,ESE,113,0.0,3.5,62,0.00,,,0.00,WUHU216HW,2013-05-04 02:55:00,
2013-05-03 23:00:00,52.5,39.8,29.94,ESE,113,0.0,3.5,62,0.00,,,0.00,WUHU216HW,2013-05-04 03:00:00,
2013-05-03 23:05:00,52.3,40.0,29.94,SW,225,0.0,0.0,63,0.00,,,0.00,WUHU216HW,2013-05-04 03:05:00,
2013-05-03 23:10:00,52.1,39.4,29.94,SE,135,0.0,0.0,63,0.00,,,0.00,WUHU216HW,2013-05-04 03:10:00,
2013-05-03 23:15:00,51.9,39.2,29.94,SSE,158,0.0,0.0,62,0.00,,,0.00,WUHU216HW,2013-05-04 03:15:00,
2013-05-03 23:20:00,51.6,39.3,29.94,SSE,158,0.0,0.0,63,0.00,,,0.00,WUHU216HW,2013-05-04 03:20:00,
2013-05-03 23:25:00,51.6,39.3,29.94,ENE,68,0.0,0.0,63,0.00,,,0.00,WUHU216HW,2013-05-04 03:25:00,
2013-05-03 23:30:00,51.4,39.2,29.94,ENE,68,0.0,0.0,63,0.00,,,0.00,WUHU216HW,2013-05-04 03:30:00,
2013-05-03 23:36:00,51.0,39.2,29.94,ENE,68,0.0,2.2,64,0.00,,,0.00,WUHU216HW,2013-05-04 03:36:00,
2013-05-03 23:41:00,50.9,39.1,29.94,East,90,0.0,2.2,64,0.00,,,0.00,WUHU216HW,2013-05-04 03:41:00,
2013-05-03 23:46:00,50.7,38.9,29.94,ESE,113,0.0,1.7,64,0.00,,,0.00,WUHU216HW,2013-05-04 03:46:00,
2013-05-03 23:51:00,50.7,38.9,29.94,ESE,113,0.0,1.7,64,0.00,,,0.00,WUHU216HW,2013-05-04 03:51:00,
2013-05-03 23:56:00,50.5,39.0,29.94,ESE,113,0.0,0.0,64,0.00,,,0.00,WUHU216HW,2013-05-04 03:56:00,